Time;durP1;ratioP1;P1;durP2;ratioP2;P2;SDS_P1;SDS_P2;PMS_P1;PMS_P2;Temp;Humidity;BMP_temperature;BMP_pressure;BME280_temperature;BME280_humidity;BME280_pressure;Samples;Min_cycle;Max_cycle;Signal;HPM_P1;HPM_P2
2021/11/25 00:01:33;;;;;;;24.50;12.90;;;;;;;-2.23;90.89;96862.46;105330;1312;31148;-87
2021/11/25 00:04:04;;;;;;;23.50;12.90;;;;;;;-2.19;90.81;96855.80;105300;1313;40037;-88
2021/11/25 00:06:35;;;;;;;17.70;11.50;;;;;;;-2.19;90.92;96855.97;105356;1315;30827;-87
2021/11/25 00:09:06;;;;;;;20.10;11.80;;;;;;;-2.11;91.14;96849.69;105330;1313;32956;-88
2021/11/25 00:11:38;;;;;;;18.20;10.80;;;;;;;-1.95;91.52;96845.61;105321;1316;30827;-88
2021/11/25 00:14:09;;;;;;;15.90;10.10;;;;;;;-1.79;91.60;96837.52;105331;1309;30745;-88
2021/11/25 00:16:40;;;;;;;15.80;9.90;;;;;;;-1.68;91.46;96839.45;105328;1315;29606;-88
2021/11/25 00:19:11;;;;;;;17.60;9.50;;;;;;;-1.78;90.72;96837.48;105306;1314;30371;-88
2021/11/25 00:21:42;;;;;;;18.20;9.20;;;;;;;-1.98;90.24;96835.93;105338;1312;34119;-87
2021/11/25 00:24:13;;;;;;;17.30;9.30;;;;;;;-2.17;89.94;96838.08;105315;1313;33721;-88
2021/11/25 00:26:44;;;;;;;16.50;9.30;;;;;;;-2.25;90.34;96836.30;105336;1315;29231;-88
2021/11/25 00:29:15;;;;;;;20.10;10.80;;;;;;;-2.18;90.89;96840.23;105358;1313;29258;-87
2021/11/25 00:31:46;;;;;;;18.70;11.30;;;;;;;-2.05;91.19;96837.90;105344;1313;28136;-87
2021/11/25 00:34:18;;;;;;;19.20;11.30;;;;;;;-1.97;91.16;96830.42;105303;1313;28442;-88
2021/11/25 00:36:49;;;;;;;14.80;9.10;;;;;;;-1.88;91.28;96833.89;105443;1313;32237;-87
2021/11/25 00:39:21;;;;;;;18.00;10.60;;;;;;;-1.89;91.14;96824.65;105403;1316;27752;-88
2021/11/25 00:41:52;;;;;;;16.30;10.20;;;;;;;-1.78;91.48;96823.74;105382;1311;30139;-87
2021/11/25 00:44:23;;;;;;;17.30;10.00;;;;;;;-1.69;91.31;96819.36;105337;1313;29211;-88
2021/11/25 00:46:54;;;;;;;15.10;8.60;;;;;;;-1.59;91.45;96813.36;105370;1313;39114;-88
2021/11/25 00:49:25;;;;;;;17.40;9.30;;;;;;;-1.46;91.42;96805.14;105283;1315;34608;-87
2021/11/25 00:51:56;;;;;;;16.50;10.30;;;;;;;-1.32;91.53;96802.77;105301;1315;31438;-88
2021/11/25 00:54:27;;;;;;;13.50;8.50;;;;;;;-1.23;91.30;96802.75;105321;1315;30444;-88
2021/11/25 00:56:58;;;;;;;15.50;9.30;;;;;;;-1.12;91.04;96797.74;105322;1315;30145;-87
2021/11/25 00:59:30;;;;;;;13.90;9.00;;;;;;;-1.12;90.86;96792.74;105316;1316;28272;-87
2021/11/25 01:02:00;;;;;;;16.30;9.10;;;;;;;-1.15;90.55;96790.02;105368;1311;28233;-88
2021/11/25 01:04:32;;;;;;;14.60;8.30;;;;;;;-1.11;90.56;96783.19;105358;1316;27754;-88
2021/11/25 01:07:03;;;;;;;17.20;9.30;;;;;;;-1.26;90.36;96779.29;105333;1315;28265;-87
2021/11/25 01:09:34;;;;;;;12.80;8.50;;;;;;;-1.38;89.82;96773.20;105284;1316;29736;-88
2021/11/25 01:12:06;;;;;;;13.40;7.70;;;;;;;-1.48;89.85;96774.95;105333;1316;27917;-87
2021/11/25 01:14:38;;;;;;;14.80;8.60;;;;;;;-1.48;90.04;96773.18;105304;1315;28721;-88
2021/11/25 01:17:10;;;;;;;12.20;8.20;;;;;;;-1.48;89.89;96769.95;105298;1316;29244;-87
2021/11/25 01:19:41;;;;;;;13.50;8.10;;;;;;;-1.54;89.70;96772.17;105316;1313;30872;-87
2021/11/25 01:22:12;;;;;;;12.10;6.20;;;;;;;-1.68;89.37;96768.35;105293;1313;44705;-88
2021/11/25 01:24:43;;;;;;;14.00;7.50;;;;;;;-1.66;90.36;96759.87;105303;1313;31071;-87
2021/11/25 01:27:16;;;;;;;17.60;10.20;;;;;;;-1.35;90.80;96757.63;105331;1313;28645;-88
2021/11/25 01:29:47;;;;;;;16.30;9.10;;;;;;;-1.15;90.77;96754.08;105330;1315;29040;-88
2021/11/25 01:32:18;;;;;;;12.00;7.40;;;;;;;-1.09;90.52;96743.60;105347;1316;31457;-88
2021/11/25 01:34:49;;;;;;;14.50;8.70;;;;;;;-0.89;90.59;96740.37;105391;1313;30049;-87
2021/11/25 01:37:23;;;;;;;16.00;9.20;;;;;;;-0.72;90.44;96742.09;105344;1316;28221;-87
2021/11/25 01:39:54;;;;;;;16.40;8.60;;;;;;;-0.83;89.66;96739.61;105275;1316;51988;-88
2021/11/25 01:42:26;;;;;;;17.10;9.10;;;;;;;-0.99;89.13;96736.83;105300;1310;28010;-87
2021/11/25 01:44:57;;;;;;;15.80;9.00;;;;;;;-1.10;88.96;96736.56;105332;1313;37115;-88
2021/11/25 01:47:28;;;;;;;12.70;8.70;;;;;;;-1.14;89.14;96736.66;105331;1315;28644;-87
2021/11/25 01:49:59;;;;;;;13.50;8.30;;;;;;;-1.30;88.50;96736.08;105346;1312;28165;-87
2021/11/25 01:52:30;;;;;;;18.00;8.90;;;;;;;-1.36;88.89;96735.20;105284;1316;28697;-88
2021/11/25 01:55:00;;;;;;;12.40;7.40;;;;;;;-1.34;89.29;96729.31;105241;1313;30692;-87
2021/11/25 01:57:32;;;;;;;14.20;6.40;;;;;;;-1.29;89.43;96725.39;105305;1310;27581;-87
2021/11/25 02:00:04;;;;;;;15.60;8.10;;;;;;;-1.25;89.42;96720.80;105328;1316;30097;-88
2021/11/25 02:02:35;;;;;;;14.40;7.90;;;;;;;-1.25;89.58;96714.40;105278;1313;31691;-87
2021/11/25 02:05:07;;;;;;;13.70;7.80;;;;;;;-1.24;89.70;96713.39;105285;1316;28909;-87
2021/11/25 02:07:38;;;;;;;12.50;6.90;;;;;;;-1.25;89.42;96706.48;105332;1312;28614;-87
2021/11/25 02:10:11;;;;;;;12.50;7.30;;;;;;;-1.26;89.63;96697.55;105327;1314;29397;-87
2021/11/25 02:12:43;;;;;;;11.40;6.90;;;;;;;-1.25;89.51;96697.28;105320;1312;29426;-87
2021/11/25 02:15:16;;;;;;;11.20;6.80;;;;;;;-1.21;89.58;96698.19;105154;1310;210752;-87
2021/11/25 02:17:47;;;;;;;11.80;7.40;;;;;;;-1.20;89.51;96699.22;105307;1315;28981;-88
2021/11/25 02:20:18;;;;;;;12.30;7.90;;;;;;;-1.22;89.29;96699.35;105342;1312;29052;-87
2021/11/25 02:22:50;;;;;;;12.50;8.00;;;;;;;-1.34;88.83;96699.30;105352;1316;30995;-87
2021/11/25 02:25:21;;;;;;;12.40;7.70;;;;;;;-1.53;88.56;96691.35;105379;1313;30006;-87
2021/11/25 02:27:53;;;;;;;13.60;7.80;;;;;;;-1.59;88.85;96690.34;105356;1315;33760;-87
2021/11/25 02:30:24;;;;;;;15.20;8.50;;;;;;;-1.62;89.04;96690.50;105241;1313;29240;-87
2021/11/25 02:32:55;;;;;;;15.60;9.00;;;;;;;-1.63;89.02;96683.87;105320;1310;29000;-88
2021/11/25 02:35:28;;;;;;;19.90;9.80;;;;;;;-1.53;89.50;96684.79;105345;1310;31891;-87
2021/11/25 02:38:00;;;;;;;15.30;9.70;;;;;;;-1.39;89.37;96680.74;105291;1315;30469;-87
2021/11/25 02:40:33;;;;;;;17.10;9.40;;;;;;;-1.31;89.60;96681.46;105262;1314;28974;-87
2021/11/25 02:43:07;;;;;;;17.10;9.90;;;;;;;-1.27;89.49;96678.95;105316;1315;28684;-87
2021/11/25 02:45:50;;;;;;;17.50;9.50;;;;;;;-1.26;89.05;96671.38;105297;1314;28730;-88
2021/11/25 02:48:23;;;;;;;16.70;9.40;;;;;;;-1.27;88.98;96663.25;105352;1309;31484;-87
2021/11/25 02:50:56;;;;;;;18.80;9.80;;;;;;;-1.27;88.78;96655.09;105310;1314;28517;-87
2021/11/25 02:53:29;;;;;;;16.20;9.10;;;;;;;-1.30;88.68;96653.13;105310;1311;30473;-87
2021/11/25 02:56:04;;;;;;;14.30;8.90;;;;;;;-1.33;88.76;96651.05;105334;1312;27708;-88
2021/11/25 02:58:36;;;;;;;15.90;8.60;;;;;;;-1.35;88.44;96645.74;105299;1311;27927;-87
2021/11/25 03:01:11;;;;;;;15.20;9.20;;;;;;;-1.39;88.84;96643.03;105276;1314;33693;-86
2021/11/25 03:03:42;;;;;;;19.40;11.00;;;;;;;-1.42;89.02;96634.54;105332;1310;30531;-88
2021/11/25 03:06:13;;;;;;;15.00;8.30;;;;;;;-1.45;88.80;96632.30;105305;1312;30885;-87
2021/11/25 03:08:45;;;;;;;17.70;10.10;;;;;;;-1.40;89.14;96624.63;105276;1315;33922;-87
2021/11/25 03:11:19;;;;;;;16.40;9.80;;;;;;;-1.42;88.86;96615.79;105321;1313;30929;-88
2021/11/25 03:13:53;;;;;;;14.50;7.80;;;;;;;-1.46;88.93;96610.63;105406;1309;27679;-87
2021/11/25 03:16:25;;;;;;;14.00;8.70;;;;;;;-1.44;89.16;96609.55;105306;1316;29954;-87
2021/11/25 03:18:57;;;;;;;11.70;7.20;;;;;;;-1.41;89.21;96612.94;105338;1312;44475;-87
2021/11/25 03:21:29;;;;;;;13.30;9.10;;;;;;;-1.44;89.05;96614.02;105335;1309;42655;-88
2021/11/25 03:24:00;;;;;;;14.00;9.00;;;;;;;-1.44;89.21;96616.02;105328;1310;29441;-87
2021/11/25 03:26:31;;;;;;;17.50;9.10;;;;;;;-1.44;88.79;96611.79;105347;1313;31756;-87
2021/11/25 03:29:02;;;;;;;17.00;10.60;;;;;;;-1.46;88.78;96612.39;105334;1316;30978;-88
2021/11/25 03:31:35;;;;;;;13.30;8.20;;;;;;;-1.47;88.83;96609.40;105322;1313;29812;-88
2021/11/25 03:34:06;;;;;;;17.60;9.30;;;;;;;-1.49;88.90;96605.80;105237;1310;28806;-87
2021/11/25 03:36:37;;;;;;;16.10;8.80;;;;;;;-1.48;88.73;96607.48;105381;1313;28948;-90
2021/11/25 03:39:08;;;;;;;15.10;8.60;;;;;;;-1.47;89.13;96603.95;105233;1313;31603;-90
2021/11/25 03:41:40;;;;;;;12.10;8.10;;;;;;;-1.45;88.82;96600.67;105282;1310;32665;-88
2021/11/25 03:44:11;;;;;;;15.20;8.00;;;;;;;-1.46;88.85;96594.91;105280;1314;30371;-88
2021/11/25 03:46:42;;;;;;;14.30;8.50;;;;;;;-1.49;88.84;96587.39;105334;1310;29512;-88
2021/11/25 03:49:13;;;;;;;15.40;8.90;;;;;;;-1.53;88.86;96579.98;105302;1309;30112;-88
2021/11/25 03:51:43;;;;;;;12.60;8.30;;;;;;;-1.56;88.73;96576.04;105332;1308;31904;-88
2021/11/25 03:54:15;;;;;;;13.30;8.00;;;;;;;-1.58;88.62;96571.05;105314;1309;30239;-88
2021/11/25 03:56:45;;;;;;;14.80;8.10;;;;;;;-1.59;88.61;96571.97;105364;1313;29050;-86
2021/11/25 03:59:16;;;;;;;11.30;7.40;;;;;;;-1.62;88.85;96563.46;105340;1313;30072;-88
2021/11/25 04:01:47;;;;;;;13.40;6.30;;;;;;;-1.58;89.07;96553.61;105366;1310;27064;-88
2021/11/25 04:04:18;;;;;;;14.70;8.20;;;;;;;-1.50;88.74;96547.77;105387;1313;27455;-87
2021/11/25 04:06:49;;;;;;;12.80;8.60;;;;;;;-1.46;88.75;96541.84;105388;1313;30090;-87
2021/11/25 04:09:20;;;;;;;15.80;9.00;;;;;;;-1.45;88.72;96544.83;105369;1308;32023;-88
2021/11/25 04:11:52;;;;;;;11.30;6.80;;;;;;;-1.48;88.63;96544.72;105402;1316;27564;-87
2021/11/25 04:14:22;;;;;;;12.30;7.70;;;;;;;-1.46;88.76;96540.84;105365;1312;35036;-88
2021/11/25 04:16:53;;;;;;;13.10;7.90;;;;;;;-1.41;88.85;96537.51;105297;1315;29274;-88
2021/11/25 04:19:24;;;;;;;13.00;7.90;;;;;;;-1.38;88.76;96535.70;105349;1309;32437;-87
2021/11/25 04:21:56;;;;;;;13.20;7.40;;;;;;;-1.38;88.35;96535.44;105327;1308;27013;-87
2021/11/25 04:24:27;;;;;;;12.40;7.20;;;;;;;-1.40;88.31;96530.91;105301;1313;28942;-88
2021/11/25 04:26:58;;;;;;;10.40;6.10;;;;;;;-1.38;88.21;96523.79;105297;1312;29171;-87
2021/11/25 04:29:29;;;;;;;17.20;9.60;;;;;;;-1.19;88.41;96519.83;105319;1314;32618;-88
2021/11/25 04:37:37;;;;;;;15.10;7.30;;;;;;;-0.99;87.63;96503.38;105306;1310;32576;-87
2021/11/25 04:40:11;;;;;;;10.20;6.00;;;;;;;-0.92;87.50;96499.30;105296;1310;29645;-87
2021/11/25 04:42:42;;;;;;;12.00;6.90;;;;;;;-0.92;87.09;96490.94;105293;1309;32398;-88
2021/11/25 04:45:13;;;;;;;11.20;6.10;;;;;;;-0.90;86.81;96480.83;105286;1312;31970;-87
2021/11/25 04:47:44;;;;;;;12.20;6.90;;;;;;;-0.81;86.86;96479.98;105316;1311;45850;-88
2021/11/25 04:50:15;;;;;;;11.50;6.60;;;;;;;-0.77;86.45;96480.87;105195;1309;32531;-87
2021/11/25 04:52:46;;;;;;;11.50;6.70;;;;;;;-0.70;86.53;96474.83;105297;1309;30752;-87
2021/11/25 04:55:18;;;;;;;10.90;6.40;;;;;;;-0.72;86.31;96467.06;105313;1315;29545;-87
2021/11/25 04:57:49;;;;;;;12.00;6.30;;;;;;;-0.77;86.06;96464.82;105242;1309;37138;-88
2021/11/25 05:00:21;;;;;;;7.50;4.30;;;;;;;-0.81;85.85;96453.05;105363;1312;32068;-88
2021/11/25 05:02:53;;;;;;;10.80;5.40;;;;;;;-0.78;86.00;96448.70;105376;1313;29533;-87
2021/11/25 05:05:26;;;;;;;11.60;6.70;;;;;;;-0.79;85.82;96442.38;105297;1311;31459;-88
2021/11/25 05:07:57;;;;;;;13.40;7.30;;;;;;;-0.77;85.86;96440.31;105237;1309;32082;-88
2021/11/25 05:10:28;;;;;;;10.40;5.60;;;;;;;-0.71;85.65;96434.70;105334;1309;30101;-88
2021/11/25 05:12:59;;;;;;;10.60;5.80;;;;;;;-0.65;85.53;96426.02;105309;1309;30378;-88
2021/11/25 05:15:31;;;;;;;7.80;4.20;;;;;;;-0.53;85.40;96423.52;105308;1313;29073;-88
2021/11/25 05:18:02;;;;;;;7.50;4.90;;;;;;;-0.46;85.38;96423.86;105331;1310;33868;-88
2021/11/25 05:20:33;;;;;;;11.60;6.50;;;;;;;-0.40;84.81;96423.80;105340;1311;29711;-88
2021/11/25 05:23:05;;;;;;;9.10;5.50;;;;;;;-0.40;84.60;96413.27;105362;1314;28651;-88
2021/11/25 05:25:37;;;;;;;11.10;6.80;;;;;;;-0.42;84.46;96409.50;105400;1313;32894;-88
2021/11/25 05:28:08;;;;;;;15.20;7.80;;;;;;;-0.42;84.26;96411.34;105379;1312;31946;-88
2021/11/25 05:30:39;;;;;;;11.30;5.90;;;;;;;-0.42;84.20;96406.14;105393;1312;31547;-88
2021/11/25 05:33:10;;;;;;;11.40;6.50;;;;;;;-0.44;83.90;96396.73;105388;1315;32638;-87
2021/11/25 05:35:42;;;;;;;14.30;7.10;;;;;;;-0.42;83.88;96392.98;105345;1311;33652;-88
2021/11/25 05:38:14;;;;;;;12.70;7.10;;;;;;;-0.43;84.12;96390.31;105334;1310;30803;-88
2021/11/25 05:40:46;;;;;;;10.50;5.50;;;;;;;-0.44;84.00;96397.45;105327;1309;32246;-89
2021/11/25 05:43:17;;;;;;;13.30;6.60;;;;;;;-0.36;83.98;96399.38;105313;1312;31366;-88
2021/11/25 05:45:49;;;;;;;11.00;5.10;;;;;;;-0.30;83.69;96400.48;105410;1309;30412;-88
2021/11/25 05:48:20;;;;;;;11.10;5.40;;;;;;;-0.25;83.62;96389.08;105325;1309;67422;-88
2021/11/25 05:50:51;;;;;;;11.10;6.70;;;;;;;-0.21;83.53;96389.66;105357;1316;38627;-88
2021/11/25 05:53:22;;;;;;;10.80;6.00;;;;;;;-0.24;83.66;96388.50;105337;1316;33929;-88
2021/11/25 05:55:53;;;;;;;11.30;6.60;;;;;;;-0.29;83.32;96391.36;105343;1310;30349;-87
2021/11/25 05:58:24;;;;;;;8.60;5.40;;;;;;;-0.32;83.36;96390.13;105315;1309;38155;-88
2021/11/25 06:00:55;;;;;;;9.00;5.80;;;;;;;-0.35;83.29;96399.77;105312;1316;31222;-88
2021/11/25 06:03:26;;;;;;;9.90;5.50;;;;;;;-0.38;83.38;96399.00;105297;1314;42091;-87
2021/11/25 06:05:57;;;;;;;11.20;5.90;;;;;;;-0.33;83.19;96399.91;105320;1314;29839;-87
2021/11/25 06:08:28;;;;;;;10.90;5.90;;;;;;;-0.29;83.08;96390.98;105330;1315;30410;-87
2021/11/25 06:11:02;;;;;;;10.40;6.30;;;;;;;-0.31;83.09;96392.39;105315;1315;29155;-88
2021/11/25 06:13:33;;;;;;;11.90;6.90;;;;;;;-0.33;82.91;96389.14;105296;1309;28725;-88
2021/11/25 06:16:05;;;;;;;12.60;6.60;;;;;;;-0.35;83.02;96398.38;105315;1313;30405;-89
2021/11/25 06:18:37;;;;;;;8.60;5.50;;;;;;;-0.32;82.64;96396.90;105319;1309;29093;-88
2021/11/25 06:21:08;;;;;;;12.50;6.80;;;;;;;-0.28;82.57;96387.93;105330;1309;30824;-87
2021/11/25 06:23:43;;;;;;;13.40;7.80;;;;;;;-0.29;82.24;96379.00;105332;1310;28095;-88
2021/11/25 06:26:24;;;;;;;11.80;6.00;;;;;;;-0.26;82.30;96384.00;105336;1309;30325;-88
2021/11/25 06:28:55;;;;;;;11.30;6.30;;;;;;;-0.29;82.35;96380.16;105320;1310;30386;-88
2021/11/25 06:31:26;;;;;;;11.30;6.60;;;;;;;-0.28;81.99;96379.92;105298;1310;42787;-88
2021/11/25 06:33:57;;;;;;;9.30;5.80;;;;;;;-0.27;82.22;96381.88;105282;1315;30783;-87
2021/11/25 06:36:28;;;;;;;12.00;6.20;;;;;;;-0.25;81.92;96380.90;105339;1310;30342;-87
2021/11/25 06:39:00;;;;;;;11.80;7.00;;;;;;;-0.12;81.97;96378.47;105311;1309;29825;-88
2021/11/25 06:41:31;;;;;;;8.90;5.60;;;;;;;0.18;81.95;96379.31;105308;1309;27508;-88
2021/11/25 06:44:02;;;;;;;8.60;4.90;;;;;;;0.46;81.18;96379.10;105323;1309;27464;-88
2021/11/25 06:46:33;;;;;;;14.00;7.40;;;;;;;0.79;80.57;96372.05;105357;1313;27531;-88
2021/11/25 06:49:04;;;;;;;8.30;5.10;;;;;;;1.12;80.06;96366.04;105252;1309;65683;-89
2021/11/25 06:51:36;;;;;;;9.90;5.80;;;;;;;1.41;79.19;96359.11;105352;1313;30994;-87
2021/11/25 06:54:07;;;;;;;7.00;4.30;;;;;;;1.71;78.72;96354.81;105305;1311;27637;-87
2021/11/25 06:56:38;;;;;;;9.60;5.10;;;;;;;1.88;76.83;96346.29;105273;1309;29343;-86
2021/11/25 06:59:10;;;;;;;10.10;5.20;;;;;;;1.97;75.86;96343.39;105279;1309;38801;-87
2021/11/25 07:01:41;;;;;;;12.40;6.90;;;;;;;2.22;75.90;96350.98;105282;1309;31635;-87
2021/11/25 07:04:13;;;;;;;10.80;6.60;;;;;;;2.43;75.14;96343.23;105311;1307;26545;-87
2021/11/25 07:06:46;;;;;;;8.50;5.30;;;;;;;2.64;74.99;96343.88;105307;1314;28698;-87
2021/11/25 07:09:19;;;;;;;9.60;6.60;;;;;;;2.82;74.11;96348.39;105414;1310;28598;-87
2021/11/25 07:11:50;;;;;;;10.70;6.20;;;;;;;2.99;73.51;96348.25;105402;1315;29361;-87
2021/11/25 07:14:21;;;;;;;9.50;5.60;;;;;;;3.17;72.97;96353.52;105395;1309;29880;-86
2021/11/25 07:16:52;;;;;;;11.30;5.70;;;;;;;3.40;72.60;96349.11;105397;1309;31629;-87
2021/11/25 07:19:23;;;;;;;10.20;5.80;;;;;;;3.45;71.29;96348.21;105368;1314;29286;-86
2021/11/25 07:21:54;;;;;;;10.70;6.40;;;;;;;3.56;71.03;96342.19;105346;1313;30896;-86
2021/11/25 07:24:25;;;;;;;9.70;5.90;;;;;;;3.76;70.88;96342.94;105271;1309;33654;-87
2021/11/25 07:26:56;;;;;;;11.50;6.30;;;;;;;3.88;69.63;96343.27;105304;1310;28293;-87
2021/11/25 07:29:28;;;;;;;11.10;5.80;;;;;;;3.60;68.09;96344.06;105308;1309;28552;-88
2021/11/25 07:31:59;;;;;;;9.60;5.30;;;;;;;3.45;68.23;96348.99;105283;1309;29404;-87
2021/11/25 07:34:30;;;;;;;8.50;5.30;;;;;;;3.42;68.21;96349.16;105304;1309;35360;-87
2021/11/25 07:37:02;;;;;;;7.90;4.40;;;;;;;3.62;68.59;96345.88;105297;1310;28785;-88
2021/11/25 07:39:33;;;;;;;10.40;6.10;;;;;;;3.87;67.97;96351.48;105356;1309;31226;-87
2021/11/25 07:42:05;;;;;;;10.10;6.00;;;;;;;4.03;67.49;96344.88;105351;1311;29752;-87
2021/11/25 07:44:36;;;;;;;9.10;5.90;;;;;;;4.07;67.21;96340.56;105300;1314;29752;-88
2021/11/25 07:47:07;;;;;;;10.20;6.00;;;;;;;4.15;66.99;96337.90;105319;1309;27205;-88
2021/11/25 07:49:38;;;;;;;10.00;5.90;;;;;;;4.15;66.01;96333.55;105313;1313;27887;-87
2021/11/25 07:52:09;;;;;;;9.60;5.70;;;;;;;4.00;65.82;96340.07;105307;1314;28430;-87
2021/11/25 07:54:41;;;;;;;8.80;5.60;;;;;;;3.97;65.47;96331.38;105306;1314;28657;-87
2021/11/25 07:57:12;;;;;;;10.10;4.90;;;;;;;4.02;65.22;96333.59;105314;1309;29959;-87
2021/11/25 07:59:43;;;;;;;8.40;5.50;;;;;;;3.94;65.05;96330.12;105338;1313;26083;-87
2021/11/25 08:02:16;;;;;;;9.30;5.50;;;;;;;3.95;64.86;96336.91;105359;1313;27609;-86
2021/11/25 08:04:47;;;;;;;9.70;5.90;;;;;;;4.03;65.02;96333.96;105287;1310;28017;-85
2021/11/25 08:07:19;;;;;;;11.30;6.40;;;;;;;4.06;64.80;96323.56;105317;1311;30184;-86
2021/11/25 08:09:50;;;;;;;11.00;6.20;;;;;;;4.01;64.94;96331.70;105381;1313;28164;-86
2021/11/25 08:12:21;;;;;;;10.00;6.20;;;;;;;4.01;65.32;96326.02;105351;1309;26736;-86
2021/11/25 08:14:52;;;;;;;11.50;6.50;;;;;;;3.95;64.63;96338.82;105334;1314;28094;-86
2021/11/25 08:17:23;;;;;;;8.80;5.10;;;;;;;3.88;63.99;96336.24;105350;1311;30584;-86
2021/11/25 08:19:54;;;;;;;10.20;6.30;;;;;;;3.60;63.97;96328.20;105342;1310;29960;-86
2021/11/25 08:22:25;;;;;;;10.00;6.50;;;;;;;3.50;64.44;96338.79;105318;1314;26532;-86
2021/11/25 08:24:56;;;;;;;7.60;4.10;;;;;;;3.57;64.46;96331.47;105289;1311;30175;-85
2021/11/25 08:27:27;;;;;;;9.10;5.20;;;;;;;3.42;63.46;96317.30;105362;1309;28974;-86
2021/11/25 08:29:58;;;;;;;12.40;7.00;;;;;;;3.24;63.11;96323.41;105323;1309;27545;-85
2021/11/25 08:32:29;;;;;;;10.10;6.20;;;;;;;3.22;63.72;96321.29;105262;1309;27751;-85
2021/11/25 08:35:01;;;;;;;8.40;5.20;;;;;;;3.25;63.71;96322.92;105324;1314;29208;-85
2021/11/25 08:37:32;;;;;;;9.60;5.30;;;;;;;3.23;62.78;96325.22;105346;1313;28922;-85
2021/11/25 08:40:05;;;;;;;10.60;5.90;;;;;;;3.27;62.93;96321.10;105330;1309;27844;-85
2021/11/25 08:42:36;;;;;;;10.30;5.90;;;;;;;3.44;63.67;96323.41;105308;1313;29267;-85
2021/11/25 08:45:10;;;;;;;11.00;6.30;;;;;;;3.63;62.91;96319.42;105305;1306;27636;-85
2021/11/25 08:47:42;;;;;;;9.50;5.80;;;;;;;3.69;62.83;96310.81;105265;1314;43942;-85
2021/11/25 08:50:16;;;;;;;8.60;5.20;;;;;;;3.74;62.24;96307.10;105315;1309;32847;-85
2021/11/25 08:52:47;;;;;;;11.40;7.00;;;;;;;3.63;61.82;96313.45;105325;1312;29869;-86
2021/11/25 08:55:18;;;;;;;13.40;6.10;;;;;;;3.54;61.50;96303.58;105295;1309;30343;-86
2021/11/25 08:57:49;;;;;;;9.70;5.10;;;;;;;3.43;61.81;96303.48;105317;1313;28435;-85
2021/11/25 09:00:23;;;;;;;11.10;6.20;;;;;;;3.41;61.38;96304.45;105371;1309;27889;-85
2021/11/25 09:02:54;;;;;;;9.30;5.10;;;;;;;3.44;61.87;96307.63;105331;1311;32953;-84
2021/11/25 09:05:25;;;;;;;7.50;3.60;;;;;;;3.47;61.81;96309.19;105342;1310;29640;-85
2021/11/25 09:07:57;;;;;;;7.50;4.50;;;;;;;3.49;61.33;96305.95;105313;1311;28954;-85
2021/11/25 09:10:28;;;;;;;11.70;6.90;;;;;;;3.48;61.27;96303.48;105377;1309;27972;-85
2021/11/25 09:13:01;;;;;;;9.50;5.60;;;;;;;3.56;61.81;96296.20;105357;1310;27763;-86
2021/11/25 09:15:33;;;;;;;11.10;6.60;;;;;;;3.67;60.95;96296.95;105353;1313;28525;-86
2021/11/25 09:18:05;;;;;;;11.10;6.80;;;;;;;3.69;61.02;96296.93;105326;1311;26707;-86
2021/11/25 09:20:39;;;;;;;12.10;6.80;;;;;;;3.80;61.06;96288.41;105346;1311;33286;-85
2021/11/25 09:23:13;;;;;;;8.60;4.30;;;;;;;3.88;60.87;96279.85;105307;1313;29972;-86
2021/11/25 09:25:46;;;;;;;9.70;5.10;;;;;;;3.83;59.88;96277.66;105292;1309;29311;-85
2021/11/25 09:28:20;;;;;;;11.90;7.00;;;;;;;3.92;60.36;96283.48;105335;1311;30063;-86
2021/11/25 09:30:53;;;;;;;8.80;4.80;;;;;;;4.03;59.53;96275.32;105391;1313;28366;-87
2021/11/25 09:33:24;;;;;;;13.30;6.10;;;;;;;3.99;59.47;96267.10;105355;1309;29007;-86
2021/11/25 09:35:55;;;;;;;11.00;5.90;;;;;;;4.04;59.89;96272.61;105332;1311;27539;-86
2021/11/25 09:38:27;;;;;;;6.90;3.60;;;;;;;4.05;59.62;96258.71;105413;1309;27656;-87
2021/11/25 09:41:00;;;;;;;7.40;4.70;;;;;;;4.01;59.21;96254.63;105392;1309;29458;-88
2021/11/25 09:43:31;;;;;;;9.90;5.60;;;;;;;3.92;58.83;96254.84;105417;1309;33086;-87
2021/11/25 09:46:03;;;;;;;13.50;7.10;;;;;;;3.88;59.23;96247.92;105246;1313;31215;-87
2021/11/25 09:48:34;;;;;;;10.30;5.30;;;;;;;3.94;59.55;96249.62;105320;1311;27048;-87
2021/11/25 09:51:07;;;;;;;12.40;6.70;;;;;;;4.04;59.28;96250.83;105351;1310;30232;-87
2021/11/25 09:53:39;;;;;;;12.00;6.80;;;;;;;4.14;60.03;96249.38;105359;1309;26936;-85
2021/11/25 09:56:10;;;;;;;11.40;7.50;;;;;;;4.40;60.47;96249.23;105364;1309;28846;-86
2021/11/25 09:58:41;;;;;;;11.60;7.40;;;;;;;4.55;60.00;96252.52;105329;1309;28726;-85
2021/11/25 10:01:15;;;;;;;12.10;7.00;;;;;;;4.65;60.13;96244.23;105337;1309;28231;-84
2021/11/25 10:03:50;;;;;;;10.70;5.70;;;;;;;4.75;59.93;96243.83;105354;1311;27884;-85
2021/11/25 10:06:23;;;;;;;9.90;6.50;;;;;;;4.86;60.33;96231.95;105347;1310;31342;-85
2021/11/25 10:08:56;;;;;;;11.10;6.40;;;;;;;5.03;60.00;96221.30;105319;1309;29382;-85
2021/11/25 10:11:33;;;;;;;12.50;6.80;;;;;;;5.08;59.76;96222.29;105356;1311;30257;-85
2021/11/25 10:14:09;;;;;;;10.70;6.40;;;;;;;5.09;59.24;96217.36;105166;1307;256153;-85
2021/11/25 10:16:42;;;;;;;9.60;5.90;;;;;;;5.22;59.69;96213.13;105309;1309;30568;-85
2021/11/25 10:19:15;;;;;;;12.40;6.50;;;;;;;5.30;58.78;96215.11;105342;1309;27477;-85
2021/11/25 10:21:52;;;;;;;10.40;7.10;;;;;;;5.27;58.77;96213.84;105336;1310;29171;-85
2021/11/25 10:24:35;;;;;;;12.60;6.60;;;;;;;5.29;59.00;96211.11;105379;1314;29484;-85
2021/11/25 10:27:18;;;;;;;11.20;6.60;;;;;;;5.34;58.58;96196.43;105275;1310;29420;-85
2021/11/25 10:29:51;;;;;;;9.90;6.60;;;;;;;5.35;58.40;96192.77;105310;1313;29181;-85
2021/11/25 10:32:23;;;;;;;10.10;5.90;;;;;;;5.44;58.97;96189.95;105393;1311;30674;-85
2021/11/25 10:35:10;;;;;;;11.70;6.00;;;;;;;5.53;58.55;96186.06;105351;1309;29052;-83
2021/11/25 10:38:00;;;;;;;10.50;6.40;;;;;;;5.60;58.42;96173.56;105306;1309;31857;-85
2021/11/25 10:40:33;;;;;;;10.00;6.20;;;;;;;5.59;57.27;96168.15;105317;1316;27746;-85
2021/11/25 10:43:18;;;;;;;10.70;5.90;;;;;;;5.50;57.29;96162.66;105359;1310;27049;-86
2021/11/25 10:45:51;;;;;;;11.70;6.00;;;;;;;5.48;57.47;96155.69;105346;1309;28501;-85
2021/11/25 10:48:33;;;;;;;9.50;5.50;;;;;;;5.43;56.68;96144.69;105401;1310;37549;-85
2021/11/25 10:51:27;;;;;;;10.80;6.30;;;;;;;5.37;56.89;96139.58;105353;1313;28059;-86
2021/11/25 10:54:08;;;;;;;10.00;5.90;;;;;;;5.53;57.16;96136.73;105345;1312;29602;-85
2021/11/25 10:56:46;;;;;;;11.20;5.50;;;;;;;5.60;56.57;96138.23;105336;1311;28404;-85
2021/11/25 10:59:21;;;;;;;10.10;5.90;;;;;;;5.67;57.00;96129.48;105342;1311;28598;-85
2021/11/25 11:01:54;;;;;;;9.40;5.60;;;;;;;5.80;56.36;96116.80;105371;1309;34857;-85
2021/11/25 11:04:28;;;;;;;9.20;5.00;;;;;;;5.85;56.31;96107.70;105319;1310;34441;-85
2021/11/25 11:06:59;;;;;;;9.30;5.50;;;;;;;5.92;55.91;96103.64;105332;1310;26444;-85
2021/11/25 11:09:39;;;;;;;9.80;5.20;;;;;;;6.03;56.28;96087.23;105296;1315;26187;-85
2021/11/25 11:12:25;;;;;;;9.00;4.90;;;;;;;6.13;56.13;96085.14;105355;1309;29931;-87
2021/11/25 11:15:01;;;;;;;7.30;4.60;;;;;;;6.20;55.41;96083.79;105357;1309;29366;-86
2021/11/25 11:17:46;;;;;;;8.80;4.90;;;;;;;6.23;55.44;96085.84;105292;1312;28163;-86
2021/11/25 11:20:20;;;;;;;7.60;4.80;;;;;;;6.34;55.64;96085.14;105302;1310;27429;-86
2021/11/25 11:22:57;;;;;;;9.20;3.60;;;;;;;6.43;55.63;96084.77;105387;1310;41724;-86
2021/11/25 11:25:33;;;;;;;8.70;5.20;;;;;;;6.49;55.23;96082.30;105397;1309;30633;-86
2021/11/25 11:28:06;;;;;;;6.90;4.40;;;;;;;6.52;55.50;96078.56;105327;1314;30266;-87
2021/11/25 11:30:39;;;;;;;10.60;5.90;;;;;;;6.52;55.27;96067.08;105353;1309;36995;-86
2021/11/25 11:33:13;;;;;;;8.90;4.90;;;;;;;6.48;55.37;96067.77;105286;1311;31748;-87
2021/11/25 11:35:46;;;;;;;8.10;4.70;;;;;;;6.54;55.84;96060.86;105298;1313;27136;-86
2021/11/25 11:38:18;;;;;;;8.50;4.60;;;;;;;6.62;55.18;96043.47;105286;1309;29922;-86
2021/11/25 11:40:50;;;;;;;6.00;3.50;;;;;;;6.56;55.06;96036.46;105333;1310;31482;-86
2021/11/25 11:43:22;;;;;;;9.20;5.00;;;;;;;6.61;55.45;96032.35;105420;1315;27688;-85
2021/11/25 11:45:53;;;;;;;8.20;5.00;;;;;;;6.71;55.24;96020.16;105396;1313;30145;-84
2021/11/25 11:48:25;;;;;;;8.50;4.70;;;;;;;6.83;55.52;96021.91;105318;1309;28314;-85
2021/11/25 11:50:58;;;;;;;8.20;4.20;;;;;;;6.99;55.74;96014.38;105362;1309;29463;-85